createdAt,value
2018-07-01T00:01:07.554Z,0
2018-07-01T00:02:17.624Z,0
2018-07-01T00:03:27.457Z,0
2018-07-01T00:04:37.543Z,0
2018-07-01T00:05:47.362Z,0
2018-07-01T00:06:57.440Z,0
2018-07-01T00:08:07.556Z,0
2018-07-01T00:09:17.386Z,0
2018-07-01T00:10:27.471Z,0
2018-07-01T00:11:37.560Z,0
2018-07-01T00:12:47.632Z,0
2018-07-01T00:13:57.707Z,0
2018-07-01T00:15:07.513Z,0
2018-07-01T00:16:17.149Z,0
2018-07-01T00:17:27.020Z,0
2018-07-01T00:18:36.577Z,0
2018-07-01T00:19:46.660Z,0
2018-07-01T00:20:57.163Z,0
2018-07-01T00:22:07.007Z,0
2018-07-01T00:23:16.826Z,0
2018-07-01T00:24:26.941Z,0
2018-07-01T00:25:36.763Z,0
2018-07-01T00:26:46.844Z,0
2018-07-01T00:27:57.043Z,0
2018-07-01T00:29:07.127Z,0
2018-07-01T00:30:17.235Z,0
2018-07-01T00:31:27.348Z,0
2018-07-01T00:32:37.442Z,0
2018-07-01T00:33:47.212Z,0
2018-07-01T00:34:56.501Z,0
2018-07-01T00:36:07.233Z,0
2018-07-01T00:37:17.439Z,0
2018-07-01T00:38:27.571Z,0
2018-07-01T00:39:37.668Z,0
2018-07-01T00:40:47.802Z,0
2018-07-01T00:41:57.627Z,0
2018-07-01T00:43:07.702Z,0
2018-07-01T00:44:17.782Z,0
2018-07-01T00:45:27.859Z,0
2018-07-01T00:46:37.927Z,0
2018-07-01T00:47:48.011Z,0
2018-07-01T00:48:58.088Z,0
2018-07-01T00:50:08.327Z,0
2018-07-01T00:51:18.457Z,0
2018-07-01T00:52:28.269Z,0
2018-07-01T00:53:38.331Z,0
2018-07-01T00:54:48.400Z,0
2018-07-01T00:55:58.462Z,0
2018-07-01T00:57:08.282Z,0
2018-07-01T00:58:18.407Z,0
2018-07-01T00:59:28.492Z,0
2018-07-01T01:00:38.590Z,0
2018-07-01T01:01:48.727Z,0
2018-07-01T01:02:58.804Z,0
2018-07-01T01:04:08.896Z,0
2018-07-01T01:05:18.977Z,0
2018-07-01T01:06:29.061Z,0
2018-07-01T01:07:39.135Z,0
2018-07-01T01:08:49.423Z,0
2018-07-01T01:09:59.739Z,0
2018-07-01T01:11:09.816Z,0
2018-07-01T01:12:19.894Z,0
2018-07-01T01:13:29.971Z,0
2018-07-01T01:14:40.058Z,0
2018-07-01T01:15:49.866Z,0
2018-07-01T01:16:59.981Z,0
2018-07-01T01:18:10.065Z,0
2018-07-01T01:19:19.868Z,0
2018-07-01T01:20:29.690Z,0
2018-07-01T01:21:39.768Z,0
2018-07-01T01:22:49.897Z,0
2018-07-01T01:24:00.093Z,0
2018-07-01T01:25:10.167Z,0
2018-07-01T01:26:20.250Z,0
2018-07-01T01:27:30.304Z,0
2018-07-01T01:28:40.120Z,0
2018-07-01T01:29:50.215Z,0
2018-07-01T01:31:00.314Z,0
2018-07-01T01:32:10.114Z,0
2018-07-01T01:33:19.980Z,0
2018-07-01T01:34:30.085Z,0
2018-07-01T01:35:40.186Z,0
2018-07-01T01:36:50.266Z,0
2018-07-01T01:38:00.344Z,0
2018-07-01T01:39:10.428Z,0
2018-07-01T01:40:20.491Z,0
2018-07-01T01:41:30.574Z,0
2018-07-01T01:42:40.634Z,0
2018-07-01T01:43:50.448Z,0
2018-07-01T01:45:00.784Z,0
2018-07-01T01:46:10.863Z,0
2018-07-01T01:47:20.928Z,0
2018-07-01T01:48:30.824Z,0
2018-07-01T01:49:40.900Z,0
2018-07-01T01:50:50.995Z,0
2018-07-01T01:52:01.065Z,0
2018-07-01T01:53:11.123Z,0
2018-07-01T01:54:21.185Z,0
2018-07-01T01:55:31.276Z,0
2018-07-01T01:56:41.349Z,0
2018-07-01T01:57:51.156Z,0
2018-07-01T01:59:01.251Z,0
2018-07-01T02:00:11.339Z,0
2018-07-01T02:01:21.164Z,0
2018-07-01T02:02:31.233Z,0
2018-07-01T02:03:41.324Z,0
2018-07-01T02:04:51.383Z,0
2018-07-01T02:06:01.473Z,0
2018-07-01T02:07:11.303Z,0
2018-07-01T02:08:21.461Z,0
2018-07-01T02:09:31.544Z,0
2018-07-01T02:10:41.610Z,0
2018-07-01T02:11:51.681Z,0
2018-07-01T02:13:01.485Z,0
2018-07-01T02:14:11.573Z,0
2018-07-01T02:15:21.648Z,0
2018-07-01T02:16:31.720Z,0
2018-07-01T02:17:41.537Z,0
2018-07-01T02:18:51.350Z,0
2018-07-01T02:20:01.148Z,0
2018-07-01T02:21:11.201Z,0
2018-07-01T02:22:21.274Z,0
2018-07-01T02:23:31.374Z,0
2018-07-01T02:24:41.185Z,0
2018-07-01T02:25:53.940Z,0
2018-07-01T02:27:04.031Z,0
2018-07-01T02:28:14.119Z,0
2018-07-01T02:29:24.207Z,0
2018-07-01T02:30:34.304Z,0
2018-07-01T02:31:44.108Z,0
2018-07-01T02:32:54.251Z,0
2018-07-01T02:34:04.061Z,0
2018-07-01T02:35:14.224Z,0
2018-07-01T02:36:24.338Z,0
2018-07-01T02:37:34.450Z,0
2018-07-01T02:38:44.591Z,0
2018-07-01T02:39:54.660Z,0
2018-07-01T02:41:04.479Z,0
2018-07-01T02:42:14.564Z,0
2018-07-01T02:43:24.657Z,0
2018-07-01T02:44:34.492Z,0
2018-07-01T02:45:44.578Z,0
2018-07-01T02:46:54.655Z,0
2018-07-01T02:48:04.479Z,0
2018-07-01T02:49:14.611Z,0
2018-07-01T02:50:24.742Z,0
2018-07-01T02:51:34.547Z,0
2018-07-01T02:52:44.367Z,0
2018-07-01T02:53:54.544Z,0
2018-07-01T02:55:04.628Z,0
2018-07-01T02:56:14.900Z,0
2018-07-01T02:57:24.728Z,5
2018-07-01T02:58:34.814Z,5
2018-07-01T02:59:44.888Z,5
2018-07-01T03:00:54.706Z,5
2018-07-01T03:02:04.775Z,5
2018-07-01T03:34:41.008Z,30
2018-07-01T03:35:51.324Z,30
2018-07-01T03:37:01.153Z,30
2018-07-01T03:38:11.233Z,30
2018-07-01T03:39:21.315Z,30
2018-07-01T03:40:31.379Z,35
2018-07-01T03:41:41.459Z,35
2018-07-01T03:42:51.551Z,35
2018-07-01T03:44:01.628Z,35
2018-07-01T03:45:11.706Z,35
2018-07-01T03:46:21.784Z,40
2018-07-01T03:47:31.578Z,40
2018-07-01T03:48:41.659Z,40
2018-07-01T03:49:51.473Z,45
2018-07-01T03:51:01.557Z,45
2018-07-01T03:52:11.684Z,45
2018-07-01T03:53:21.741Z,50
2018-07-01T03:54:31.807Z,50
2018-07-01T03:55:41.878Z,50
2018-07-01T03:56:51.952Z,55
2018-07-01T03:58:02.069Z,55
2018-07-01T03:59:12.147Z,55
2018-07-01T04:00:22.241Z,55
2018-07-01T04:01:32.065Z,55
2018-07-01T04:02:42.148Z,55
2018-07-01T04:03:52.332Z,60
2018-07-01T04:05:02.425Z,60
2018-07-01T04:06:12.232Z,60
2018-07-01T04:07:22.330Z,65
2018-07-01T04:08:32.389Z,65
2018-07-01T04:09:42.451Z,65
2018-07-01T04:10:52.516Z,65
2018-07-01T04:12:02.600Z,70
2018-07-01T04:13:12.409Z,70
2018-07-01T04:14:22.484Z,75
2018-07-01T04:15:32.559Z,80
2018-07-01T04:16:42.893Z,80
2018-07-01T04:17:52.974Z,85
2018-07-01T04:19:03.049Z,85
2018-07-01T04:20:13.129Z,85
2018-07-01T04:21:23.207Z,85
2018-07-01T04:22:33.301Z,105
2018-07-01T04:23:43.095Z,85
2018-07-01T04:24:53.165Z,85
2018-07-01T04:26:02.971Z,80
2018-07-01T04:27:13.044Z,90
2018-07-01T04:28:23.356Z,110
2018-07-01T04:29:33.175Z,110
2018-07-01T04:30:43.240Z,140
2018-07-01T04:31:53.336Z,120
2018-07-01T04:33:03.139Z,110
2018-07-01T04:34:12.951Z,105
2018-07-01T04:35:23.038Z,105
2018-07-01T04:36:33.105Z,105
2018-07-01T04:37:43.175Z,100
2018-07-01T04:38:53.264Z,100
2018-07-01T04:40:03.097Z,100
2018-07-01T04:41:13.167Z,95
2018-07-01T04:42:22.975Z,95
2018-07-01T04:43:33.063Z,95
2018-07-01T04:44:43.143Z,95
2018-07-01T04:45:52.960Z,95
2018-07-01T04:47:03.042Z,100
2018-07-01T04:48:13.099Z,105
2018-07-01T04:49:23.424Z,110
2018-07-01T04:50:32.967Z,115
2018-07-01T04:51:43.032Z,140
2018-07-01T04:52:53.134Z,140
2018-07-01T04:54:03.203Z,155
2018-07-01T04:55:13.527Z,145
2018-07-01T04:56:23.745Z,155
2018-07-01T04:57:33.551Z,170
2018-07-01T04:58:43.371Z,220
2018-07-01T04:59:53.460Z,670
2018-07-01T05:01:03.290Z,520
2018-07-01T05:02:13.461Z,455
2018-07-01T05:03:23.626Z,395
2018-07-01T05:04:33.698Z,555
2018-07-01T05:05:43.774Z,700
2018-07-01T05:06:53.590Z,490
2018-07-01T05:08:03.398Z,560
2018-07-01T05:09:13.464Z,310
2018-07-01T05:10:23.015Z,360
2018-07-01T05:11:33.100Z,745
2018-07-01T05:12:43.195Z,365
2018-07-01T05:13:52.766Z,610
2018-07-01T05:15:02.853Z,345
2018-07-01T05:16:12.950Z,490
2018-07-01T05:17:23.282Z,675
2018-07-01T05:18:33.373Z,420
2018-07-01T05:19:43.448Z,565
2018-07-01T05:20:53.532Z,520
2018-07-01T05:22:03.628Z,215
2018-07-01T05:23:13.705Z,240
2018-07-01T05:24:23.777Z,360
2018-07-01T05:25:33.890Z,460
2018-07-01T05:26:44.169Z,210
2018-07-01T05:27:54.270Z,200
2018-07-01T05:29:04.345Z,200
2018-07-01T05:30:14.445Z,195
2018-07-01T05:31:24.013Z,200
2018-07-01T05:32:34.103Z,200
2018-07-01T05:33:44.028Z,205
2018-07-01T05:34:54.129Z,205
2018-07-01T05:36:04.205Z,215
2018-07-01T05:37:14.284Z,220
2018-07-01T05:38:24.362Z,220
2018-07-01T05:39:34.429Z,225
2018-07-01T05:40:44.549Z,255
2018-07-01T05:41:54.638Z,315
2018-07-01T05:43:04.763Z,495
2018-07-01T05:44:14.308Z,255
2018-07-01T05:45:24.379Z,385
2018-07-01T05:46:34.444Z,250
2018-07-01T05:47:44.530Z,245
2018-07-01T05:48:54.610Z,245
2018-07-01T05:50:04.724Z,245
2018-07-01T05:51:14.815Z,255
2018-07-01T05:52:24.621Z,260
2018-07-01T05:53:34.748Z,245
2018-07-01T05:54:44.564Z,250
2018-07-01T05:55:54.645Z,285
2018-07-01T05:57:04.825Z,255
2018-07-01T05:58:14.355Z,260
2018-07-01T05:59:24.428Z,265
2018-07-01T06:00:34.049Z,260
2018-07-01T06:01:44.131Z,270
2018-07-01T06:02:54.221Z,285
2018-07-01T06:04:04.039Z,280
2018-07-01T06:05:14.178Z,280
2018-07-01T06:06:24.260Z,295
2018-07-01T06:07:34.420Z,260
2018-07-01T06:08:44.872Z,255
2018-07-01T06:09:55.006Z,255
2018-07-01T06:11:05.066Z,380
2018-07-01T06:12:15.210Z,340
2018-07-01T06:13:25.303Z,405
2018-07-01T06:14:35.420Z,455
2018-07-01T06:15:45.507Z,460
2018-07-01T06:16:56.034Z,460
2018-07-01T06:18:06.197Z,440
2018-07-01T06:19:16.276Z,440
2018-07-01T06:20:26.365Z,430
2018-07-01T06:21:36.467Z,425
2018-07-01T06:22:46.566Z,420
2018-07-01T06:23:56.648Z,415
2018-07-01T06:25:06.727Z,405
2018-07-01T06:26:16.833Z,400
2018-07-01T06:27:26.895Z,330
2018-07-01T06:28:36.981Z,310
2018-07-01T06:29:47.059Z,345
2018-07-01T06:30:57.178Z,325
2018-07-01T06:32:07.271Z,315
2018-07-01T06:33:17.362Z,310
2018-07-01T06:34:27.190Z,305
2018-07-01T06:35:37.278Z,300
2018-07-01T06:36:47.354Z,305
2018-07-01T06:37:57.440Z,300
2018-07-01T06:39:07.522Z,300
2018-07-01T06:40:17.608Z,305
2018-07-01T06:41:27.730Z,300
2018-07-01T06:42:37.798Z,290
2018-07-01T06:43:47.884Z,275
2018-07-01T06:44:57.983Z,275
2018-07-01T06:46:08.057Z,270
2018-07-01T06:47:18.133Z,270
2018-07-01T06:48:28.219Z,270
2018-07-01T06:49:38.612Z,275
2018-07-01T06:50:48.695Z,265
2018-07-01T06:51:58.510Z,265
2018-07-01T06:53:08.648Z,260
2018-07-01T06:54:18.710Z,260
2018-07-01T06:55:28.782Z,260
2018-07-01T06:56:39.359Z,265
2018-07-01T06:57:49.176Z,270
2018-07-01T06:58:59.313Z,270
2018-07-01T07:00:09.402Z,270
2018-07-01T07:01:19.500Z,275
2018-07-01T07:02:29.837Z,270
2018-07-01T07:03:39.938Z,270
2018-07-01T07:04:50.069Z,275
2018-07-01T07:06:00.149Z,180
2018-07-01T07:07:10.231Z,175
2018-07-01T07:08:20.327Z,165
2018-07-01T07:09:30.405Z,170
2018-07-01T07:10:40.486Z,165
2018-07-01T07:11:50.586Z,175
2018-07-01T07:13:00.653Z,220
2018-07-01T07:14:10.739Z,205
2018-07-01T07:15:20.812Z,190
2018-07-01T07:16:31.242Z,190
2018-07-01T07:17:41.332Z,180
2018-07-01T07:18:51.427Z,170
2018-07-01T07:20:01.255Z,175
2018-07-01T07:21:11.380Z,180
2018-07-01T07:22:21.214Z,185
2018-07-01T07:23:31.296Z,185
2018-07-01T07:24:41.451Z,190
2018-07-01T07:25:51.277Z,185
2018-07-01T07:27:01.106Z,180
2018-07-01T07:28:11.214Z,170
2018-07-01T07:29:21.304Z,165
2018-07-01T07:30:31.112Z,160
2018-07-01T07:31:41.210Z,155
2018-07-01T07:32:51.031Z,155
2018-07-01T07:34:01.119Z,160
2018-07-01T07:35:11.198Z,160
2018-07-01T07:36:20.507Z,160
2018-07-01T07:37:30.619Z,160
2018-07-01T07:38:40.690Z,165
2018-07-01T07:39:50.785Z,175
2018-07-01T07:41:00.616Z,185
2018-07-01T07:42:10.676Z,180
2018-07-01T07:43:20.507Z,185
2018-07-01T07:44:30.320Z,185
2018-07-01T07:45:40.401Z,180
2018-07-01T07:46:50.482Z,170
2018-07-01T07:48:00.584Z,175
2018-07-01T07:49:10.668Z,160
2018-07-01T07:50:20.739Z,165
2018-07-01T07:51:30.825Z,160
2018-07-01T07:52:40.944Z,160
2018-07-01T07:53:51.033Z,160
2018-07-01T07:55:01.157Z,155
2018-07-01T07:56:11.245Z,155
2018-07-01T07:57:21.386Z,155
2018-07-01T07:58:31.683Z,155
2018-07-01T07:59:41.262Z,165
2018-07-01T08:00:51.094Z,165
2018-07-01T08:02:01.436Z,160
2018-07-01T08:03:11.220Z,165
2018-07-01T08:04:21.052Z,160
2018-07-01T08:05:31.138Z,160
2018-07-01T08:06:40.691Z,165
2018-07-01T08:07:50.522Z,165
2018-07-01T08:09:00.607Z,165
2018-07-01T08:10:10.678Z,165
2018-07-01T08:11:20.797Z,165
2018-07-01T08:12:30.581Z,170
2018-07-01T08:13:40.382Z,170
2018-07-01T08:14:50.484Z,165
2018-07-01T08:16:00.559Z,165
2018-07-01T08:17:10.676Z,170
2018-07-01T08:18:20.768Z,170
2018-07-01T08:19:30.859Z,175
2018-07-01T08:20:40.989Z,180
2018-07-01T08:21:51.159Z,180
2018-07-01T08:23:01.255Z,180
2018-07-01T08:24:11.358Z,190
2018-07-01T08:25:21.442Z,200
2018-07-01T08:26:31.518Z,210
2018-07-01T08:27:41.615Z,210
2018-07-01T08:28:51.742Z,220
2018-07-01T08:30:01.852Z,235
2018-07-01T08:31:11.952Z,230
2018-07-01T08:32:22.035Z,240
2018-07-01T08:33:32.116Z,245
2018-07-01T08:34:42.513Z,235
2018-07-01T08:35:52.093Z,215
2018-07-01T08:37:02.240Z,200
2018-07-01T08:38:12.618Z,260
2018-07-01T08:39:22.719Z,260
2018-07-01T08:40:32.561Z,275
2018-07-01T08:41:42.639Z,275
2018-07-01T08:42:52.758Z,280
2018-07-01T08:44:02.903Z,225
2018-07-01T08:45:13.064Z,220
2018-07-01T08:46:23.180Z,290
2018-07-01T08:47:32.915Z,295
2018-07-01T08:48:42.741Z,245
2018-07-01T08:49:52.884Z,240
2018-07-01T08:51:02.968Z,250
2018-07-01T08:52:13.137Z,310
2018-07-01T08:53:23.236Z,250
2018-07-01T08:54:33.099Z,250
2018-07-01T08:55:43.240Z,240
2018-07-01T08:56:53.385Z,240
2018-07-01T08:58:03.479Z,240
2018-07-01T08:59:13.557Z,285
2018-07-01T09:00:23.698Z,245
2018-07-01T09:01:33.798Z,240
2018-07-01T09:02:43.904Z,245
2018-07-01T09:03:53.991Z,215
2018-07-01T09:05:04.324Z,205
2018-07-01T09:06:14.411Z,210
2018-07-01T09:07:24.224Z,210
2018-07-01T09:08:34.658Z,195
2018-07-01T09:09:44.820Z,195
2018-07-01T09:10:54.958Z,205
2018-07-01T09:12:05.041Z,215
2018-07-01T09:13:14.883Z,280
2018-07-01T09:14:24.976Z,295
2018-07-01T09:15:35.077Z,295
2018-07-01T09:16:44.910Z,310
2018-07-01T09:17:54.757Z,315
2018-07-01T09:19:04.311Z,310
2018-07-01T09:20:14.145Z,315
2018-07-01T09:21:24.265Z,285
2018-07-01T09:22:34.369Z,200
2018-07-01T09:23:44.786Z,195
2018-07-01T09:24:54.876Z,195
2018-07-01T09:26:04.711Z,195
2018-07-01T09:27:14.545Z,190
2018-07-01T09:28:24.385Z,190
2018-07-01T09:29:34.475Z,190
2018-07-01T09:30:44.549Z,185
2018-07-01T09:31:54.650Z,185
2018-07-01T09:33:04.748Z,185
2018-07-01T09:34:14.632Z,175
2018-07-01T09:35:24.441Z,170
2018-07-01T09:36:34.553Z,170
2018-07-01T09:37:44.397Z,165
2018-07-01T09:38:54.499Z,170
2018-07-01T09:40:04.604Z,175
2018-07-01T09:41:14.412Z,185
2018-07-01T09:42:24.247Z,255
2018-07-01T09:43:34.562Z,295
2018-07-01T09:44:44.661Z,310
2018-07-01T09:45:54.490Z,325
2018-07-01T09:47:04.566Z,320
2018-07-01T09:48:14.695Z,260
2018-07-01T09:49:24.529Z,290
2018-07-01T09:50:35.356Z,290
2018-07-01T09:51:45.455Z,290
2018-07-01T09:52:55.534Z,215
2018-07-01T09:54:05.621Z,205
2018-07-01T09:55:15.462Z,205
2018-07-01T09:56:25.559Z,205
2018-07-01T09:57:35.394Z,200
2018-07-01T09:58:45.473Z,190
2018-07-01T09:59:55.550Z,190
2018-07-01T10:01:06.001Z,195
2018-07-01T10:02:16.118Z,205
2018-07-01T10:03:26.200Z,300
2018-07-01T10:04:36.035Z,300
2018-07-01T10:05:45.884Z,310
2018-07-01T10:06:55.981Z,310
2018-07-01T10:08:06.102Z,315
2018-07-01T10:09:16.187Z,320
2018-07-01T10:10:26.282Z,325
2018-07-01T10:11:36.118Z,330
2018-07-01T10:12:45.949Z,335
2018-07-01T10:13:56.033Z,330
2018-07-01T10:15:06.110Z,325
2018-07-01T10:18:56.995Z,190
2018-07-01T10:20:07.186Z,185
2018-07-01T10:21:17.299Z,170
2018-07-01T10:22:27.417Z,170
2018-07-01T10:23:37.567Z,165
2018-07-01T10:24:47.447Z,170
2018-07-01T10:25:57.801Z,225
2018-07-01T10:27:07.895Z,280
2018-07-01T10:28:17.711Z,295
2018-07-01T10:29:27.796Z,310
2018-07-01T10:30:37.977Z,320
2018-07-01T10:31:47.847Z,330
2018-07-01T10:32:57.973Z,320
2018-07-01T10:34:08.057Z,315
2018-07-01T10:35:18.150Z,225
2018-07-01T10:36:28.250Z,230
2018-07-01T10:37:38.084Z,240
2018-07-01T10:38:48.193Z,230
2018-07-01T10:39:58.291Z,235
2018-07-01T10:41:08.378Z,245
2018-07-01T10:42:18.480Z,295
2018-07-01T10:43:28.577Z,240
2018-07-01T10:44:38.673Z,250
2018-07-01T10:45:48.921Z,295
2018-07-01T10:46:58.737Z,235
2018-07-01T10:48:08.817Z,240
2018-07-01T10:49:18.931Z,280
2018-07-01T10:50:29.023Z,225
2018-07-01T10:51:38.952Z,215
2018-07-01T10:52:49.125Z,205
2018-07-01T10:53:59.245Z,200
2018-07-01T10:55:09.405Z,200
2018-07-01T10:56:19.511Z,200
2018-07-01T10:57:29.387Z,205
2018-07-01T10:58:39.539Z,215
2018-07-01T10:59:49.412Z,225
2018-07-01T11:00:59.248Z,235
2018-07-01T11:02:09.425Z,245
2018-07-01T11:03:19.541Z,295
2018-07-01T11:04:29.626Z,235
2018-07-01T11:05:39.461Z,235
2018-07-01T11:06:49.553Z,220
2018-07-01T11:07:59.655Z,215
2018-07-01T11:09:09.745Z,205
2018-07-01T11:10:19.822Z,200
2018-07-01T11:11:29.675Z,195
2018-07-01T11:12:39.760Z,195
2018-07-01T11:13:49.867Z,195
2018-07-01T11:15:00.012Z,190
2018-07-01T11:16:10.109Z,200
2018-07-01T11:17:20.201Z,210
2018-07-01T11:18:30.364Z,235
2018-07-01T11:19:40.200Z,260
2018-07-01T11:20:50.298Z,330
2018-07-01T11:22:00.166Z,340
2018-07-01T11:23:10.260Z,240
2018-07-01T11:24:20.346Z,235
2018-07-01T11:25:30.444Z,250
2018-07-01T11:26:41.205Z,310
2018-07-01T11:27:50.898Z,295
2018-07-01T11:29:00.732Z,310
2018-07-01T11:30:10.820Z,270
2018-07-01T11:31:20.911Z,300
2018-07-01T11:32:31.008Z,200
2018-07-01T11:33:41.211Z,305
2018-07-01T11:34:51.078Z,290
2018-07-01T11:36:01.181Z,295
2018-07-01T11:37:11.271Z,295
2018-07-01T11:38:21.398Z,300
2018-07-01T11:39:31.496Z,210
2018-07-01T11:40:41.615Z,185
2018-07-01T11:41:51.470Z,190
2018-07-01T11:43:01.578Z,190
2018-07-01T11:44:11.431Z,205
2018-07-01T11:45:21.255Z,285
2018-07-01T11:46:31.332Z,280
2018-07-01T11:47:41.419Z,165
2018-07-01T11:48:51.508Z,160
2018-07-01T11:50:01.597Z,160
2018-07-01T11:51:11.708Z,165
2018-07-01T11:52:21.978Z,165
2018-07-01T11:53:32.084Z,170
2018-07-01T11:54:42.178Z,165
2018-07-01T11:55:52.007Z,170
2018-07-01T11:57:02.097Z,170
2018-07-01T11:58:11.779Z,175
2018-07-01T11:59:21.580Z,180
2018-07-01T12:00:31.683Z,295
2018-07-01T12:01:41.778Z,300
2018-07-01T12:02:51.921Z,295
2018-07-01T12:04:01.760Z,290
2018-07-01T12:05:26.743Z,280
2018-07-01T12:06:36.840Z,275
2018-07-01T12:07:46.987Z,275
2018-07-01T12:08:57.339Z,275
2018-07-01T12:10:07.446Z,265
2018-07-01T12:11:17.295Z,290
2018-07-01T12:12:27.420Z,310
2018-07-01T12:13:37.512Z,195
2018-07-01T12:14:47.645Z,200
2018-07-01T12:15:57.776Z,210
2018-07-01T12:17:07.883Z,210
2018-07-01T12:18:17.982Z,210
2018-07-01T12:19:28.130Z,210
2018-07-01T12:20:38.226Z,205
2018-07-01T12:21:48.062Z,195
2018-07-01T12:22:58.159Z,195
2018-07-01T12:24:08.252Z,200
2018-07-01T12:25:17.876Z,205
2018-07-01T12:26:28.019Z,230
2018-07-01T12:27:38.094Z,230
2018-07-01T12:28:48.111Z,210
2018-07-01T12:29:58.201Z,210
2018-07-01T12:31:08.307Z,300
2018-07-01T12:32:18.431Z,300
2018-07-01T12:33:28.565Z,320
2018-07-01T12:34:38.719Z,320
2018-07-01T12:35:48.820Z,320
2018-07-01T12:36:58.457Z,315
2018-07-01T12:38:08.566Z,305
2018-07-01T12:39:18.653Z,190
2018-07-01T12:40:28.804Z,180
2018-07-01T12:41:38.910Z,170
2018-07-01T12:42:48.864Z,170
2018-07-01T12:43:58.982Z,165
2018-07-01T12:45:08.836Z,160
2018-07-01T12:46:18.943Z,150
2018-07-01T12:47:29.047Z,190
2018-07-01T12:48:38.964Z,270
2018-07-01T12:49:49.058Z,155
2018-07-01T12:50:59.158Z,150
2018-07-01T12:52:09.016Z,150
2018-07-01T12:53:19.120Z,150
2018-07-01T12:54:28.998Z,155
2018-07-01T12:55:39.104Z,150
2018-07-01T12:56:49.395Z,155
2018-07-01T12:57:59.513Z,160
2018-07-01T12:59:09.342Z,175
2018-07-01T13:00:19.458Z,290
2018-07-01T13:01:29.565Z,290
2018-07-01T13:02:39.984Z,290
2018-07-01T13:03:50.076Z,290
2018-07-01T13:05:00.147Z,290
2018-07-01T13:06:09.958Z,295
2018-07-01T13:07:20.111Z,305
2018-07-01T13:08:30.335Z,315
2018-07-01T13:09:40.225Z,325
2018-07-01T13:10:50.322Z,325
2018-07-01T13:12:00.092Z,320
2018-07-01T13:13:10.276Z,315
2018-07-01T13:14:20.360Z,310
2018-07-01T13:15:30.454Z,305
2018-07-01T13:16:40.281Z,200
2018-07-01T13:17:50.430Z,200
2018-07-01T13:19:00.528Z,205
2018-07-01T13:20:10.832Z,270
2018-07-01T13:21:20.675Z,220
2018-07-01T13:22:30.818Z,230
2018-07-01T13:23:40.896Z,235
2018-07-01T13:24:50.766Z,235
2018-07-01T13:26:00.610Z,235
2018-07-01T13:27:10.720Z,240
2018-07-01T13:28:20.560Z,295
2018-07-01T13:29:30.463Z,250
2018-07-01T13:30:40.560Z,340
2018-07-01T13:31:50.461Z,330
2018-07-01T13:33:00.550Z,320
2018-07-01T13:34:10.663Z,295
2018-07-01T13:35:20.232Z,275
2018-07-01T13:36:30.091Z,250
2018-07-01T13:37:40.191Z,240
2018-07-01T13:38:50.023Z,225
2018-07-01T13:40:00.183Z,225
2018-07-01T13:41:10.277Z,220
2018-07-01T13:42:20.386Z,220
2018-07-01T13:43:30.224Z,220
2018-07-01T13:44:40.087Z,225
2018-07-01T13:45:50.404Z,230
2018-07-01T13:47:00.518Z,240
2018-07-01T13:48:10.585Z,245
2018-07-01T13:49:20.932Z,255
2018-07-01T13:50:31.098Z,265
2018-07-01T13:51:41.187Z,270
2018-07-01T13:52:50.999Z,275
2018-07-01T13:54:01.105Z,275
2018-07-01T13:55:11.206Z,280
2018-07-01T13:56:21.314Z,285
2018-07-01T13:57:31.158Z,280
2018-07-01T13:58:41.277Z,260
2018-07-01T13:59:51.332Z,280
2018-07-01T14:01:01.424Z,190
2018-07-01T14:02:11.553Z,180
2018-07-01T14:03:21.673Z,160
2018-07-01T14:04:31.797Z,150
2018-07-01T14:05:41.638Z,220
2018-07-01T14:06:51.938Z,125
2018-07-01T14:08:01.787Z,195
2018-07-01T14:09:11.939Z,205
2018-07-01T14:10:21.754Z,205
2018-07-01T14:11:31.861Z,200
2018-07-01T14:12:42.013Z,200
2018-07-01T14:13:52.111Z,200
2018-07-01T14:15:02.233Z,200
2018-07-01T14:16:12.313Z,195
2018-07-01T14:17:22.803Z,195
2018-07-01T14:18:33.016Z,195
2018-07-01T14:19:42.871Z,195
2018-07-01T14:20:52.996Z,200
2018-07-01T14:22:03.123Z,195
2018-07-01T14:23:12.957Z,200
2018-07-01T14:24:23.105Z,205
2018-07-01T14:25:33.267Z,180
2018-07-01T14:26:43.352Z,210
2018-07-01T14:27:53.477Z,220
2018-07-01T14:29:03.841Z,220
2018-07-01T14:30:14.250Z,220
2018-07-01T14:31:24.632Z,225
2018-07-01T14:32:35.233Z,215
2018-07-01T14:33:45.319Z,215
2018-07-01T14:34:55.399Z,140
2018-07-01T14:36:05.574Z,180
2018-07-01T14:37:15.679Z,135
2018-07-01T14:38:25.786Z,140
2018-07-01T14:39:35.875Z,195
2018-07-01T14:40:45.988Z,160
2018-07-01T14:41:56.142Z,135
2018-07-01T14:43:05.710Z,140
2018-07-01T14:44:15.793Z,130
2018-07-01T14:45:25.884Z,200
2018-07-01T14:46:35.981Z,200
2018-07-01T14:47:45.869Z,190
2018-07-01T14:48:55.972Z,190
2018-07-01T14:50:06.090Z,185
2018-07-01T14:51:16.194Z,180
2018-07-01T14:52:26.287Z,185
2018-07-01T14:53:36.386Z,185
2018-07-01T14:54:46.522Z,185
2018-07-01T14:55:56.428Z,185
2018-07-01T14:57:06.514Z,185
2018-07-01T14:58:16.638Z,185
2018-07-01T14:59:26.736Z,185
2018-07-01T15:00:36.567Z,185
2018-07-01T15:01:46.693Z,140
2018-07-01T15:02:56.524Z,120
2018-07-01T15:04:06.640Z,185
2018-07-01T15:05:16.495Z,185
2018-07-01T15:06:26.618Z,180
2018-07-01T15:07:36.455Z,190
2018-07-01T15:08:46.578Z,180
2018-07-01T15:09:56.744Z,180
2018-07-01T15:11:06.981Z,185
2018-07-01T15:12:17.100Z,175
2018-07-01T15:13:27.201Z,185
2018-07-01T15:14:37.335Z,180
2018-07-01T15:15:47.444Z,175
2018-07-01T15:16:57.566Z,110
2018-07-01T15:18:07.665Z,165
2018-07-01T15:19:17.848Z,170
2018-07-01T15:20:27.724Z,165
2018-07-01T15:21:37.829Z,170
2018-07-01T15:22:47.925Z,165
2018-07-01T15:23:58.039Z,165
2018-07-01T15:25:07.913Z,165
2018-07-01T15:26:18.004Z,165
2018-07-01T15:27:28.045Z,165
2018-07-01T15:28:38.155Z,130
2018-07-01T15:29:48.249Z,110
2018-07-01T15:30:58.336Z,135
2018-07-01T15:32:08.443Z,105
2018-07-01T15:33:18.541Z,125
2018-07-01T15:34:28.640Z,150
2018-07-01T15:35:38.782Z,100
2018-07-01T15:36:48.883Z,105
2018-07-01T15:37:59.397Z,95
2018-07-01T15:39:09.480Z,95
2018-07-01T15:40:19.351Z,145
2018-07-01T15:41:29.548Z,150
2018-07-01T15:42:39.657Z,150
2018-07-01T15:43:49.758Z,145
2018-07-01T15:44:59.626Z,145
2018-07-01T15:46:09.764Z,145
2018-07-01T15:47:19.866Z,145
2018-07-01T15:48:29.970Z,140
2018-07-01T15:49:40.060Z,140
2018-07-01T15:50:50.177Z,140
2018-07-01T15:52:00.025Z,145
2018-07-01T15:53:10.081Z,140
2018-07-01T15:54:20.257Z,140
2018-07-01T15:55:30.332Z,140
2018-07-01T15:56:40.458Z,140
2018-07-01T15:57:50.305Z,140
2018-07-01T15:59:00.461Z,125
2018-07-01T16:00:10.566Z,110
2018-07-01T16:01:20.653Z,135
2018-07-01T16:02:30.937Z,135
2018-07-01T16:03:41.054Z,130
2018-07-01T16:04:50.881Z,130
2018-07-01T16:06:01.026Z,130
2018-07-01T16:07:11.155Z,135
2018-07-01T16:08:21.238Z,135
2018-07-01T16:09:31.074Z,135
2018-07-01T16:10:41.195Z,135
2018-07-01T16:11:51.448Z,130
2018-07-01T16:13:01.543Z,130
2018-07-01T16:14:11.615Z,130
2018-07-01T16:15:21.691Z,130
2018-07-01T16:16:31.776Z,130
2018-07-01T16:17:41.913Z,130
2018-07-01T16:18:52.026Z,125
2018-07-01T16:20:02.125Z,125
2018-07-01T16:21:11.983Z,125
2018-07-01T16:22:22.145Z,105
2018-07-01T16:23:32.228Z,130
2018-07-01T16:24:41.549Z,130
2018-07-01T16:25:51.376Z,135
2018-07-01T16:27:01.224Z,130
2018-07-01T16:28:11.355Z,125
2018-07-01T16:29:21.195Z,130
2018-07-01T16:30:31.026Z,130
2018-07-01T16:31:41.119Z,130
2018-07-01T16:32:51.213Z,130
2018-07-01T16:34:01.318Z,130
2018-07-01T16:35:11.441Z,130
2018-07-01T16:36:21.523Z,125
2018-07-01T16:37:31.641Z,120
2018-07-01T16:38:41.771Z,120
2018-07-01T16:39:51.850Z,115
2018-07-01T16:41:02.591Z,105
2018-07-01T16:42:12.995Z,115
2018-07-01T16:43:23.119Z,115
2018-07-01T16:44:32.947Z,120
2018-07-01T16:45:43.045Z,110
2018-07-01T16:46:52.914Z,95
2018-07-01T16:48:03.030Z,95
2018-07-01T16:49:12.878Z,100
2018-07-01T16:50:22.970Z,105
2018-07-01T16:51:32.550Z,115
2018-07-01T16:52:42.752Z,120
2018-07-01T16:53:52.873Z,110